Time;durP1;ratioP1;P1;durP2;ratioP2;P2;SDS_P1;SDS_P2;PMS_P1;PMS_P2;Temp;Humidity;BMP_temperature;BMP_pressure;BME280_temperature;BME280_humidity;BME280_pressure;Samples;Min_cycle;Max_cycle;Signal;HPM_P1;HPM_P2
2023/05/20 00:00:30;;;;;;;20.58;11.40;;;21.30;48.20;;;;;;4955608;29;20035;-74
2023/05/20 00:02:56;;;;;;;18.88;11.38;;;21.30;48.20;;;;;;4922322;29;20031;-74
2023/05/20 00:05:25;;;;;;;17.48;11.32;;;21.30;48.20;;;;;;4938399;29;20497;-75
2023/05/20 00:07:51;;;;;;;19.27;11.20;;;21.30;48.20;;;;;;4937823;29;20035;-74
2023/05/20 00:10:17;;;;;;;19.25;11.18;;;21.30;48.10;;;;;;4955014;29;20466;-74
2023/05/20 00:12:43;;;;;;;17.20;10.52;;;21.30;48.10;;;;;;4955455;29;20039;-74
2023/05/20 00:15:10;;;;;;;16.75;10.38;;;21.30;48.10;;;;;;4955041;29;20027;-74
2023/05/20 00:17:37;;;;;;;16.90;10.15;;;21.30;48.10;;;;;;4954956;29;20393;-74
2023/05/20 00:20:04;;;;;;;17.02;10.95;;;21.30;48.10;;;;;;4937878;29;20027;-74
2023/05/20 00:22:30;;;;;;;17.05;10.27;;;21.30;48.10;;;;;;4954933;29;20450;-73
2023/05/20 00:24:56;;;;;;;18.33;10.88;;;21.30;48.70;;;;;;4954870;29;20392;-75
2023/05/20 00:27:22;;;;;;;18.88;10.88;;;21.30;48.10;;;;;;4954608;29;20027;-74
2023/05/20 00:29:48;;;;;;;18.17;11.38;;;21.30;48.10;;;;;;4937440;29;20031;-74
2023/05/20 00:32:14;;;;;;;19.00;11.50;;;21.30;48.20;;;;;;4937640;29;20035;-75
2023/05/20 00:34:41;;;;;;;18.05;10.82;;;21.30;48.20;;;;;;4937568;29;20513;-74
2023/05/20 00:37:07;;;;;;;20.65;11.45;;;21.30;48.20;;;;;;4954461;29;20031;-74
2023/05/20 00:39:33;;;;;;;19.20;10.73;;;21.20;48.20;;;;;;4937470;29;20023;-74
2023/05/20 00:42:01;;;;;;;18.42;11.57;;;21.30;48.20;;;;;;4937629;29;20402;-74
2023/05/20 00:44:27;;;;;;;19.08;11.80;;;21.30;48.20;;;;;;4937683;29;20094;-74
2023/05/20 00:46:54;;;;;;;18.17;11.45;;;21.30;48.20;;;;;;4954449;29;20086;-74
2023/05/20 00:49:21;;;;;;;18.30;10.93;;;21.30;48.30;;;;;;4937418;29;20043;-74
2023/05/20 00:51:47;;;;;;;17.02;10.98;;;21.30;48.30;;;;;;4937304;29;20031;-74
2023/05/20 00:54:13;;;;;;;20.23;11.52;;;21.30;48.30;;;;;;4937294;29;20030;-74
2023/05/20 00:56:40;;;;;;;17.52;10.82;;;21.20;48.20;;;;;;4937230;29;20469;-74
2023/05/20 00:59:06;;;;;;;17.00;10.13;;;21.30;48.30;;;;;;4954054;29;20490;-74
2023/05/20 01:01:32;;;;;;;18.02;11.07;;;21.30;48.30;;;;;;4921634;29;20043;-74
2023/05/20 01:03:58;;;;;;;18.30;10.82;;;21.20;48.20;;;;;;4936308;29;20035;-75
2023/05/20 01:06:24;;;;;;;17.52;10.50;;;21.20;48.20;;;;;;4921440;29;20035;-74
2023/05/20 01:08:50;;;;;;;18.27;11.18;;;21.30;48.30;;;;;;4936657;29;20099;-74
2023/05/20 01:11:27;;;;;;;18.65;10.38;;;21.20;48.20;;;;;;4921118;29;20035;-74
2023/05/20 01:14:00;;;;;;;17.25;11.10;;;21.20;48.20;;;;;;4921302;29;20138;-74
2023/05/20 01:16:27;;;;;;;15.95;10.52;;;21.30;48.20;;;;;;4954275;29;20031;-74
2023/05/20 01:18:56;;;;;;;16.40;9.90;;;21.30;48.20;;;;;;4953817;29;20223;-74
2023/05/20 01:21:22;;;;;;;17.20;10.18;;;21.30;48.30;;;;;;4936885;29;20398;-74
2023/05/20 01:23:48;;;;;;;17.73;10.38;;;21.30;48.20;;;;;;4905462;29;20039;-75
2023/05/20 01:26:14;;;;;;;16.33;9.95;;;21.20;48.20;;;;;;4936827;29;20027;-74
2023/05/20 01:28:42;;;;;;;15.63;9.93;;;21.20;48.30;;;;;;4936142;29;20394;-74
2023/05/20 01:31:22;;;;;;;19.83;11.05;;;21.30;48.30;;;;;;4936724;29;20094;-75
2023/05/20 01:33:54;;;;;;;17.20;9.65;;;21.20;48.30;;;;;;4936643;29;20031;-75
2023/05/20 01:36:21;;;;;;;16.95;10.80;;;21.30;48.40;;;;;;4920906;29;20090;-75
2023/05/20 01:38:49;;;;;;;16.88;9.93;;;21.20;48.30;;;;;;4936135;29;20031;-75
2023/05/20 01:41:16;;;;;;;18.25;10.52;;;21.30;48.40;;;;;;4936504;29;20044;-76
2023/05/20 01:43:42;;;;;;;17.27;10.63;;;21.20;48.30;;;;;;4936695;29;20387;-75
2023/05/20 01:46:08;;;;;;;17.40;10.63;;;21.20;48.40;;;;;;4953624;29;20038;-75
2023/05/20 01:48:34;;;;;;;16.10;9.80;;;21.20;48.40;;;;;;4936053;29;20401;-75
2023/05/20 01:51:00;;;;;;;16.58;9.63;;;21.20;48.40;;;;;;4920422;29;20190;-74
2023/05/20 01:53:26;;;;;;;16.48;10.20;;;21.20;48.40;;;;;;4936357;29;20039;-75
2023/05/20 01:55:52;;;;;;;13.45;9.23;;;21.20;48.40;;;;;;4936316;29;20023;-75
2023/05/20 01:58:18;;;;;;;15.75;9.82;;;21.20;48.50;;;;;;4935971;29;20566;-75
2023/05/20 02:00:43;;;;;;;17.48;10.10;;;21.20;48.40;;;;;;4936242;29;20030;-75
2023/05/20 02:03:10;;;;;;;16.55;10.07;;;21.20;48.50;;;;;;4920886;29;20078;-75
2023/05/20 02:05:35;;;;;;;15.38;9.38;;;21.20;48.50;;;;;;4936338;29;20109;-74
2023/05/20 02:08:04;;;;;;;15.18;9.02;;;21.20;48.40;;;;;;4935994;29;20027;-75
2023/05/20 02:10:30;;;;;;;15.68;9.43;;;21.20;48.50;;;;;;4935978;29;20037;-75
2023/05/20 02:12:55;;;;;;;18.08;10.18;;;21.20;48.50;;;;;;4936267;29;20035;-75
2023/05/20 02:15:22;;;;;;;16.38;9.60;;;21.20;48.40;;;;;;4939136;29;20027;-75
2023/05/20 02:17:48;;;;;;;17.65;9.30;;;21.20;48.40;;;;;;4942588;29;20089;-75
2023/05/20 02:20:15;;;;;;;16.73;9.38;;;21.20;48.40;;;;;;4951749;29;20552;-74
2023/05/20 02:22:40;;;;;;;16.65;9.88;;;21.20;48.40;;;;;;4954778;29;20408;-75
2023/05/20 02:25:07;;;;;;;15.52;8.90;;;21.20;48.40;;;;;;4954870;29;20027;-74
2023/05/20 02:27:33;;;;;;;13.63;8.77;;;21.20;48.40;;;;;;4953768;29;20038;-74
2023/05/20 02:30:00;;;;;;;16.08;8.93;;;21.20;48.50;;;;;;4967181;28;20449;-74
2023/05/20 02:32:27;;;;;;;15.07;9.27;;;21.20;48.50;;;;;;4950487;29;20520;-74
2023/05/20 02:34:56;;;;;;;15.98;9.30;;;21.20;48.50;;;;;;4948651;29;20057;-74
2023/05/20 02:37:22;;;;;;;17.48;9.65;;;21.20;48.50;;;;;;4964476;29;20043;-74
2023/05/20 02:39:48;;;;;;;14.80;9.15;;;21.20;48.50;;;;;;4946519;29;20031;-74
2023/05/20 02:42:14;;;;;;;14.98;8.57;;;21.20;48.50;;;;;;4946080;29;20039;-74
2023/05/20 02:44:40;;;;;;;14.52;8.63;;;21.20;48.60;;;;;;4945348;29;20039;-74
2023/05/20 02:47:06;;;;;;;15.52;8.80;;;21.20;48.50;;;;;;4944847;29;20038;-74
2023/05/20 02:49:32;;;;;;;15.63;9.07;;;21.20;48.50;;;;;;4944651;29;20023;-74
2023/05/20 02:51:58;;;;;;;13.60;8.45;;;21.20;48.60;;;;;;4961526;28;20050;-75
2023/05/20 02:54:24;;;;;;;15.02;8.63;;;21.20;48.50;;;;;;4959844;28;20489;-74
2023/05/20 02:56:50;;;;;;;14.32;8.70;;;21.20;48.60;;;;;;4959290;28;20035;-75
2023/05/20 02:59:16;;;;;;;14.85;8.30;;;21.20;48.60;;;;;;4941985;29;20058;-74
2023/05/20 03:01:42;;;;;;;16.25;8.50;;;21.20;48.60;;;;;;4942440;29;20075;-75
2023/05/20 03:04:08;;;;;;;15.35;8.85;;;21.20;48.60;;;;;;4942338;29;20027;-75
2023/05/20 03:06:34;;;;;;;15.55;8.85;;;21.20;48.70;;;;;;4942152;29;20054;-75
2023/05/20 03:09:00;;;;;;;14.80;8.70;;;21.20;48.60;;;;;;4958984;28;20035;-75
2023/05/20 03:11:26;;;;;;;14.60;8.40;;;21.20;48.60;;;;;;4959091;28;20460;-74
2023/05/20 03:13:52;;;;;;;15.00;8.55;;;21.20;48.60;;;;;;4926236;29;20115;-74
2023/05/20 03:16:18;;;;;;;14.55;8.02;;;21.20;48.60;;;;;;4942024;29;20035;-75
2023/05/20 03:18:45;;;;;;;14.60;8.10;;;21.20;48.50;;;;;;4941574;29;20095;-74
2023/05/20 03:21:12;;;;;;;14.25;8.18;;;21.20;48.60;;;;;;4942122;29;20035;-74
2023/05/20 03:23:37;;;;;;;13.68;7.75;;;21.20;48.60;;;;;;4941854;29;20037;-74
2023/05/20 03:26:05;;;;;;;13.73;8.13;;;21.20;48.60;;;;;;4924597;28;20146;-74
2023/05/20 03:28:32;;;;;;;14.27;8.13;;;21.20;48.60;;;;;;4937902;29;20541;-74
2023/05/20 03:30:57;;;;;;;12.63;7.88;;;21.20;48.60;;;;;;4923114;29;20031;-74
2023/05/20 03:33:25;;;;;;;13.75;7.85;;;21.20;48.70;;;;;;4956116;29;20031;-74
2023/05/20 03:35:51;;;;;;;14.35;7.95;;;21.20;48.60;;;;;;4938937;29;20180;-74
2023/05/20 03:38:17;;;;;;;12.45;7.43;;;21.20;48.70;;;;;;4938296;29;20565;-74
2023/05/20 03:40:43;;;;;;;14.13;8.32;;;21.10;48.60;;;;;;4938653;29;20027;-74
2023/05/20 03:43:08;;;;;;;13.85;7.45;;;21.20;48.70;;;;;;4955776;29;20035;-75
2023/05/20 03:45:34;;;;;;;14.15;7.88;;;21.20;48.70;;;;;;4938779;29;20453;-74
2023/05/20 03:48:05;;;;;;;13.45;7.50;;;21.20;48.70;;;;;;4938244;29;20122;-74
2023/05/20 03:50:33;;;;;;;14.45;7.97;;;21.20;48.70;;;;;;4938394;29;20102;-75
2023/05/20 03:53:00;;;;;;;13.13;7.95;;;21.20;48.70;;;;;;4938567;29;20497;-75
2023/05/20 03:55:26;;;;;;;14.48;8.18;;;21.10;48.70;;;;;;4938847;29;20073;-75
2023/05/20 03:57:53;;;;;;;13.52;7.38;;;21.20;48.70;;;;;;4938304;29;20027;-75
2023/05/20 04:00:20;;;;;;;14.23;7.95;;;21.10;48.60;;;;;;4938351;29;20056;-75
2023/05/20 04:02:48;;;;;;;14.13;7.75;;;21.20;48.70;;;;;;4938539;29;20031;-75
2023/05/20 04:05:16;;;;;;;13.63;7.57;;;21.10;48.70;;;;;;4938530;29;20034;-75
2023/05/20 04:07:42;;;;;;;11.43;7.38;;;21.10;48.70;;;;;;4937981;29;20397;-75
2023/05/20 04:10:09;;;;;;;13.45;7.78;;;21.10;48.70;;;;;;4938192;29;20083;-75
2023/05/20 04:12:37;;;;;;;12.63;7.70;;;21.10;48.70;;;;;;4955223;29;20031;-75
2023/05/20 04:15:03;;;;;;;12.98;7.97;;;21.10;48.70;;;;;;4938387;29;20032;-75
2023/05/20 04:17:37;;;;;;;13.45;8.15;;;21.10;49.30;;;;;;4937828;29;20390;-75
2023/05/20 04:20:06;;;;;;;13.45;7.63;;;21.10;48.70;;;;;;4938032;29;20032;-74
2023/05/20 04:22:33;;;;;;;13.07;7.20;;;21.10;48.60;;;;;;4937876;29;20071;-75
2023/05/20 04:24:59;;;;;;;13.23;7.45;;;21.20;48.70;;;;;;4938037;29;20042;-75
2023/05/20 04:27:25;;;;;;;13.23;7.97;;;21.20;48.70;;;;;;4921640;29;20031;-75
2023/05/20 04:29:53;;;;;;;10.88;6.90;;;21.20;48.70;;;;;;4954939;29;20035;-74
2023/05/20 04:32:20;;;;;;;12.68;7.72;;;21.20;48.70;;;;;;4937676;29;20090;-75
2023/05/20 04:34:47;;;;;;;13.07;7.18;;;21.10;48.70;;;;;;4937746;29;20241;-75
2023/05/20 04:37:13;;;;;;;14.52;7.78;;;21.20;48.70;;;;;;4937273;29;20074;-75
2023/05/20 04:39:42;;;;;;;14.48;7.22;;;21.10;48.70;;;;;;4937502;29;20035;-75
2023/05/20 04:42:08;;;;;;;11.65;7.15;;;21.10;48.70;;;;;;4937643;29;20489;-75
2023/05/20 04:44:34;;;;;;;11.93;7.32;;;21.20;48.80;;;;;;4937552;29;20044;-75
2023/05/20 04:47:00;;;;;;;12.02;6.80;;;21.10;49.30;;;;;;4937263;29;20031;-75
2023/05/20 04:49:27;;;;;;;13.38;7.82;;;21.10;48.80;;;;;;4937401;29;20031;-75
2023/05/20 04:51:54;;;;;;;15.40;7.70;;;21.10;48.90;;;;;;4937319;29;20035;-75
2023/05/20 04:54:20;;;;;;;13.13;7.30;;;21.10;48.80;;;;;;4921550;29;20027;-75
2023/05/20 04:56:46;;;;;;;12.25;7.25;;;21.10;48.80;;;;;;4937197;29;20054;-75
2023/05/20 04:59:12;;;;;;;10.68;6.95;;;21.10;48.80;;;;;;4936842;29;20062;-75
2023/05/20 05:01:39;;;;;;;12.15;7.40;;;21.10;48.80;;;;;;4921749;29;20031;-75
2023/05/20 05:04:05;;;;;;;13.93;7.28;;;21.20;49.50;;;;;;4937157;29;20156;-75
2023/05/20 05:06:31;;;;;;;12.73;7.78;;;21.10;48.80;;;;;;4921240;29;20031;-75
2023/05/20 05:08:58;;;;;;;13.38;7.20;;;21.20;48.90;;;;;;4936842;29;20046;-75
2023/05/20 05:11:25;;;;;;;13.45;7.47;;;21.10;48.80;;;;;;4921565;29;20421;-75
2023/05/20 05:13:51;;;;;;;12.48;7.45;;;21.20;48.90;;;;;;4936844;29;20045;-75
2023/05/20 05:16:20;;;;;;;13.15;7.28;;;21.20;48.90;;;;;;4936909;29;20237;-75
2023/05/20 05:18:46;;;;;;;12.52;7.30;;;21.10;49.50;;;;;;4953594;29;20038;-75
2023/05/20 05:21:12;;;;;;;11.57;6.68;;;21.10;48.90;;;;;;4936914;29;20520;-75
2023/05/20 05:23:38;;;;;;;12.45;7.40;;;21.10;48.90;;;;;;4936767;29;20035;-75
2023/05/20 05:26:04;;;;;;;11.15;7.18;;;21.10;48.90;;;;;;4936726;29;20030;-75
2023/05/20 05:28:30;;;;;;;13.23;7.78;;;21.20;48.90;;;;;;4953305;29;20042;-75
2023/05/20 05:30:56;;;;;;;13.52;7.07;;;21.20;49.00;;;;;;4936759;29;20031;-74
2023/05/20 05:33:22;;;;;;;13.02;7.38;;;21.20;48.90;;;;;;4936535;29;20040;-74
2023/05/20 05:35:49;;;;;;;12.32;6.65;;;21.20;48.90;;;;;;4936642;29;20115;-75
2023/05/20 05:38:15;;;;;;;11.07;6.60;;;21.20;48.90;;;;;;4920439;29;20039;-75
2023/05/20 05:40:41;;;;;;;11.35;6.97;;;21.20;48.90;;;;;;4936530;29;20039;-75
2023/05/20 05:43:08;;;;;;;12.05;6.63;;;21.20;49.00;;;;;;4920795;29;20393;-74
2023/05/20 05:45:34;;;;;;;12.05;7.03;;;21.20;48.90;;;;;;4936552;29;20106;-75
2023/05/20 05:48:00;;;;;;;11.68;6.75;;;21.20;49.00;;;;;;4936067;29;20586;-74
2023/05/20 05:50:26;;;;;;;12.02;6.88;;;21.20;49.00;;;;;;4935988;29;20027;-75
2023/05/20 05:52:52;;;;;;;12.15;6.97;;;21.20;49.00;;;;;;4936343;29;20035;-74
2023/05/20 05:55:19;;;;;;;10.63;6.45;;;21.20;49.00;;;;;;4953594;29;20482;-74
2023/05/20 05:57:45;;;;;;;11.05;6.55;;;21.20;49.00;;;;;;4920392;29;20110;-75
2023/05/20 06:00:14;;;;;;;10.60;6.40;;;21.20;49.00;;;;;;4936264;29;20102;-75
2023/05/20 06:02:46;;;;;;;10.80;6.80;;;21.20;49.00;;;;;;4953688;29;20043;-75
2023/05/20 06:05:21;;;;;;;12.07;6.50;;;21.20;49.00;;;;;;4936326;29;20038;-75
2023/05/20 06:07:47;;;;;;;9.80;6.25;;;21.20;49.00;;;;;;4935880;29;20378;-75
2023/05/20 06:10:13;;;;;;;12.82;6.47;;;21.20;49.10;;;;;;4936173;29;20035;-75
2023/05/20 06:12:39;;;;;;;11.20;6.70;;;21.20;49.10;;;;;;4936160;29;20587;-75
2023/05/20 06:15:06;;;;;;;12.38;6.80;;;21.10;49.10;;;;;;4936155;29;20035;-74
2023/05/20 06:17:32;;;;;;;10.80;6.30;;;21.20;49.10;;;;;;4935864;29;20493;-75
2023/05/20 06:19:58;;;;;;;12.88;6.30;;;21.20;49.10;;;;;;4935945;29;20034;-74
2023/05/20 06:22:24;;;;;;;10.27;6.10;;;21.20;49.10;;;;;;4936198;29;20042;-75
2023/05/20 06:24:50;;;;;;;11.98;6.93;;;21.20;49.10;;;;;;4936106;29;20130;-74
2023/05/20 06:27:17;;;;;;;10.43;6.00;;;21.20;49.10;;;;;;4920201;29;20070;-75
2023/05/20 06:29:43;;;;;;;10.95;5.93;;;21.20;49.10;;;;;;4919990;29;20046;-75
2023/05/20 06:32:09;;;;;;;10.65;6.15;;;21.20;49.10;;;;;;4935880;29;20031;-75
2023/05/20 06:34:35;;;;;;;11.30;6.38;;;21.20;49.20;;;;;;4936053;29;20097;-74
2023/05/20 06:37:01;;;;;;;10.00;5.97;;;21.20;49.10;;;;;;4935609;29;20035;-74
2023/05/20 06:39:27;;;;;;;11.32;6.40;;;21.20;49.10;;;;;;4935818;29;20410;-75
2023/05/20 06:41:54;;;;;;;9.57;5.80;;;21.20;49.10;;;;;;4935966;29;20035;-74
2023/05/20 06:44:27;;;;;;;11.25;5.80;;;21.20;49.10;;;;;;4936049;29;20031;-75
2023/05/20 06:47:15;;;;;;;10.20;6.32;;;21.20;49.20;;;;;;4935946;29;20397;-73
2023/05/20 06:49:44;;;;;;;11.82;6.07;;;21.20;49.10;;;;;;4919881;29;20106;-74
2023/05/20 06:52:10;;;;;;;11.45;5.97;;;21.20;49.20;;;;;;4935814;29;20042;-74
2023/05/20 06:54:40;;;;;;;11.15;5.63;;;21.20;49.20;;;;;;4935811;29;20027;-74
2023/05/20 06:57:08;;;;;;;11.40;5.95;;;21.20;49.20;;;;;;4904514;29;20122;-74
2023/05/20 06:59:35;;;;;;;13.02;5.95;;;21.20;49.20;;;;;;4935822;29;20071;-75
2023/05/20 07:02:03;;;;;;;12.43;5.63;;;21.20;49.20;;;;;;4936623;29;20107;-74
2023/05/20 07:04:29;;;;;;;10.60;5.95;;;21.20;49.30;;;;;;4908012;29;20038;-75
2023/05/20 07:06:55;;;;;;;12.48;5.72;;;21.20;49.30;;;;;;4939367;29;20397;-74
2023/05/20 07:09:21;;;;;;;9.57;5.70;;;21.20;49.30;;;;;;4923377;29;20043;-75
2023/05/20 07:11:47;;;;;;;8.63;5.40;;;21.10;49.30;;;;;;4923407;29;20035;-74
2023/05/20 07:14:13;;;;;;;9.70;5.78;;;21.20;49.30;;;;;;4923470;29;20042;-75
2023/05/20 07:16:39;;;;;;;9.07;5.40;;;21.20;49.30;;;;;;4939215;29;20024;-74
2023/05/20 07:19:05;;;;;;;10.55;5.93;;;21.20;49.30;;;;;;4956151;29;20397;-75
2023/05/20 07:21:32;;;;;;;10.32;5.78;;;21.20;49.40;;;;;;4939317;29;20066;-75
2023/05/20 07:24:06;;;;;;;9.52;5.32;;;21.20;49.30;;;;;;4939252;29;20032;-75
2023/05/20 07:26:35;;;;;;;8.95;5.03;;;21.20;49.30;;;;;;4939290;29;20031;-74
2023/05/20 07:29:02;;;;;;;10.38;5.43;;;21.20;49.30;;;;;;4938859;29;20069;-75
2023/05/20 07:31:28;;;;;;;10.68;5.70;;;21.20;49.30;;;;;;4939011;29;20039;-75
2023/05/20 07:33:54;;;;;;;10.73;5.55;;;21.20;49.30;;;;;;4939152;29;20111;-74
2023/05/20 07:36:20;;;;;;;10.20;5.53;;;21.20;49.30;;;;;;4941033;29;20049;-74
2023/05/20 07:38:49;;;;;;;10.23;5.53;;;21.20;49.30;;;;;;4923253;29;20027;-74
2023/05/20 07:41:15;;;;;;;9.75;5.35;;;21.20;49.40;;;;;;4939657;29;20027;-75
2023/05/20 07:43:40;;;;;;;8.80;5.05;;;21.20;49.30;;;;;;4939314;29;20042;-75
2023/05/20 07:46:07;;;;;;;9.15;5.35;;;21.20;49.30;;;;;;4923165;29;20082;-75
2023/05/20 07:48:32;;;;;;;10.70;5.53;;;21.20;49.40;;;;;;4938878;29;20058;-75
2023/05/20 07:50:58;;;;;;;8.90;5.53;;;21.20;49.40;;;;;;4938647;29;20027;-74
2023/05/20 07:53:25;;;;;;;10.10;5.30;;;21.20;49.30;;;;;;4923570;29;20031;-75
2023/05/20 07:55:51;;;;;;;9.35;5.35;;;21.20;49.30;;;;;;4939025;29;20042;-75
2023/05/20 07:58:17;;;;;;;8.68;4.85;;;21.20;49.30;;;;;;4938949;29;20027;-75
2023/05/20 08:00:44;;;;;;;9.77;5.75;;;21.20;49.40;;;;;;4923324;29;20032;-75
2023/05/20 08:03:10;;;;;;;9.70;5.30;;;21.20;49.30;;;;;;4941515;29;20034;-73
2023/05/20 08:06:05;;;;;;;7.85;4.82;;;21.20;49.30;;;;;;4957337;29;20031;-74
2023/05/20 08:08:32;;;;;;;9.95;5.45;;;21.20;49.50;;;;;;4965475;29;20027;-74
2023/05/20 08:11:03;;;;;;;10.05;4.88;;;21.20;49.40;;;;;;4946532;29;20038;-74
2023/05/20 08:13:30;;;;;;;8.30;4.95;;;21.20;49.40;;;;;;4926619;29;20529;-75
2023/05/20 08:15:58;;;;;;;7.95;5.30;;;21.20;49.40;;;;;;4939113;29;20074;-75
2023/05/20 08:18:26;;;;;;;8.20;5.05;;;21.20;49.40;;;;;;4938615;29;20055;-75
2023/05/20 08:20:52;;;;;;;8.13;5.13;;;21.20;49.40;;;;;;4923109;29;20042;-74
2023/05/20 08:23:18;;;;;;;8.20;5.10;;;21.20;49.50;;;;;;4938833;29;20027;-75
2023/05/20 08:25:47;;;;;;;8.35;4.93;;;21.20;49.40;;;;;;4922560;29;20043;-74
2023/05/20 08:28:14;;;;;;;8.82;4.93;;;21.20;49.50;;;;;;4937746;29;20030;-75
2023/05/20 08:30:40;;;;;;;11.32;5.07;;;21.30;49.50;;;;;;4938084;29;20035;-75
2023/05/20 08:33:06;;;;;;;7.95;5.10;;;21.20;49.30;;;;;;4922381;29;20079;-75
2023/05/20 08:35:32;;;;;;;9.73;5.30;;;21.30;49.50;;;;;;4938160;29;20528;-76
2023/05/20 08:37:58;;;;;;;8.93;4.97;;;21.30;49.50;;;;;;4954929;29;20397;-75
2023/05/20 08:40:26;;;;;;;8.25;4.78;;;21.30;49.40;;;;;;4937932;29;20032;-75
2023/05/20 08:42:52;;;;;;;8.30;4.65;;;21.20;49.50;;;;;;4955042;29;20041;-75
2023/05/20 08:45:20;;;;;;;9.02;4.85;;;21.20;49.40;;;;;;4937665;29;20067;-74
2023/05/20 08:47:47;;;;;;;7.97;4.95;;;21.30;49.50;;;;;;4937421;29;20098;-74
2023/05/20 08:50:13;;;;;;;8.45;5.10;;;21.20;49.40;;;;;;4954761;29;20477;-74
2023/05/20 08:52:47;;;;;;;7.75;4.80;;;21.30;49.50;;;;;;4954631;29;20042;-75
2023/05/20 08:55:21;;;;;;;9.65;5.05;;;21.20;49.50;;;;;;4954481;29;20557;-75
2023/05/20 08:57:50;;;;;;;7.95;5.18;;;21.20;49.50;;;;;;4954268;29;20023;-74
2023/05/20 09:00:17;;;;;;;10.63;4.93;;;21.30;49.50;;;;;;4954369;29;20031;-76
2023/05/20 09:02:46;;;;;;;9.23;5.30;;;21.30;49.50;;;;;;4937413;29;20028;-75
2023/05/20 09:05:12;;;;;;;7.63;4.70;;;21.30;49.60;;;;;;4954529;29;20027;-75
2023/05/20 09:07:37;;;;;;;8.15;5.03;;;21.30;49.50;;;;;;4937188;29;20038;-76
2023/05/20 09:10:05;;;;;;;8.18;4.90;;;21.30;49.50;;;;;;4937037;29;20027;-75
2023/05/20 09:12:31;;;;;;;9.73;5.13;;;21.20;49.60;;;;;;4954107;29;20062;-75
2023/05/20 09:14:56;;;;;;;10.23;5.10;;;21.20;49.50;;;;;;4954208;29;20038;-75
2023/05/20 09:17:23;;;;;;;9.70;4.93;;;21.20;49.60;;;;;;4953812;29;20029;-75
2023/05/20 09:19:50;;;;;;;8.07;4.50;;;21.20;49.60;;;;;;4954048;29;20685;-76
2023/05/20 09:22:24;;;;;;;8.27;4.97;;;21.30;49.60;;;;;;4954021;29;20030;-75
2023/05/20 09:24:51;;;;;;;9.27;5.05;;;21.30;49.60;;;;;;4953495;28;20027;-75
2023/05/20 09:27:17;;;;;;;8.68;5.05;;;21.20;49.60;;;;;;4953583;29;20035;-75
2023/05/20 09:29:43;;;;;;;9.40;5.07;;;21.20;49.60;;;;;;4936608;29;20516;-75
2023/05/20 09:32:12;;;;;;;9.45;4.95;;;21.20;49.60;;;;;;4953861;29;20027;-74
2023/05/20 09:34:41;;;;;;;9.63;5.10;;;21.30;49.70;;;;;;4936788;29;20033;-74
2023/05/20 09:37:08;;;;;;;12.30;4.75;;;21.30;49.70;;;;;;4951758;28;20055;-75
2023/05/20 09:39:47;;;;;;;14.45;5.07;;;21.30;49.80;;;;;;4935533;28;20367;-74
2023/05/20 09:42:25;;;;;;;10.05;4.65;;;21.30;50.00;;;;;;4963197;28;20038;-75
2023/05/20 09:44:53;;;;;;;7.03;4.38;;;21.30;49.80;;;;;;4937725;28;20145;-75
2023/05/20 09:47:19;;;;;;;12.07;4.82;;;21.30;49.90;;;;;;4952450;29;20034;-74
2023/05/20 09:49:46;;;;;;;14.15;4.75;;;21.30;50.50;;;;;;4954526;28;20463;-75
2023/05/20 09:52:14;;;;;;;9.88;5.22;;;21.40;50.20;;;;;;4951403;28;20031;-74
2023/05/20 09:54:41;;;;;;;27.75;4.78;;;21.40;50.20;;;;;;4953364;28;20429;-73
2023/05/20 09:57:08;;;;;;;13.75;5.13;;;21.40;50.70;;;;;;4927035;29;20398;-74
2023/05/20 09:59:37;;;;;;;13.07;5.10;;;21.40;50.70;;;;;;4951420;29;20027;-74
2023/05/20 10:02:09;;;;;;;15.23;4.55;;;21.40;50.60;;;;;;4917411;28;20034;-74
2023/05/20 10:04:37;;;;;;;10.75;4.72;;;21.40;50.80;;;;;;4952266;28;20493;-74
2023/05/20 10:07:30;;;;;;;11.80;4.93;;;21.40;50.60;;;;;;4972290;28;20429;-74
2023/05/20 10:10:10;;;;;;;12.07;4.72;;;21.40;50.60;;;;;;4972700;28;20078;-74
2023/05/20 10:12:45;;;;;;;8.70;4.88;;;21.40;50.60;;;;;;4964240;28;20082;-75
2023/05/20 10:15:29;;;;;;;8.10;4.88;;;21.30;50.50;;;;;;4955160;28;20511;-74
2023/05/20 10:18:23;;;;;;;10.32;5.13;;;21.30;50.60;;;;;;4956001;28;20070;-74
2023/05/20 10:20:50;;;;;;;7.45;4.50;;;21.30;50.50;;;;;;4972441;28;20038;-74
2023/05/20 10:23:23;;;;;;;14.95;5.13;;;21.30;50.40;;;;;;4946852;28;20031;-75
2023/05/20 10:25:52;;;;;;;8.85;4.70;;;21.30;50.70;;;;;;4972229;28;20033;-75
2023/05/20 10:28:31;;;;;;;13.98;4.80;;;21.30;50.50;;;;;;4971775;28;20030;-75
2023/05/20 10:30:57;;;;;;;10.60;5.10;;;21.30;50.40;;;;;;4950750;28;20054;-75
2023/05/20 10:33:26;;;;;;;11.68;5.10;;;21.30;50.60;;;;;;4971535;28;20044;-75
2023/05/20 10:35:53;;;;;;;7.47;4.37;;;21.30;50.50;;;;;;4955625;28;20482;-75
2023/05/20 10:38:20;;;;;;;9.15;4.47;;;21.30;50.40;;;;;;4976153;28;20485;-75
2023/05/20 10:40:46;;;;;;;9.27;4.13;;;21.30;50.40;;;;;;4939897;28;20400;-75
2023/05/20 10:43:15;;;;;;;11.65;4.55;;;21.30;50.30;;;;;;4973211;28;20035;-74
2023/05/20 10:45:52;;;;;;;8.18;4.50;;;21.30;50.30;;;;;;4927158;28;20289;-75
2023/05/20 10:48:31;;;;;;;8.60;4.72;;;21.30;50.40;;;;;;4942641;28;20493;-75
2023/05/20 10:51:02;;;;;;;9.93;4.47;;;21.30;50.30;;;;;;4939589;28;20034;-74
2023/05/20 10:53:30;;;;;;;10.18;4.30;;;21.30;50.90;;;;;;4959053;28;20034;-74
2023/05/20 10:55:55;;;;;;;9.02;4.32;;;21.30;50.30;;;;;;4958801;28;20063;-75
2023/05/20 10:58:23;;;;;;;7.60;4.35;;;21.30;50.30;;;;;;4958169;28;20557;-74
2023/05/20 11:00:51;;;;;;;7.85;4.53;;;21.30;50.30;;;;;;4939852;28;20033;-75
2023/05/20 11:03:20;;;;;;;8.10;4.10;;;21.30;50.30;;;;;;4975766;28;20027;-74
2023/05/20 11:05:47;;;;;;;7.05;4.07;;;21.30;50.40;;;;;;4975821;28;20031;-75
2023/05/20 11:08:13;;;;;;;7.47;4.30;;;21.30;50.40;;;;;;4958205;28;20031;-74
2023/05/20 11:10:40;;;;;;;9.93;4.60;;;21.30;50.50;;;;;;4955957;28;20031;-74
2023/05/20 11:13:07;;;;;;;8.75;4.47;;;21.30;50.30;;;;;;4958186;28;20030;-75
2023/05/20 11:15:35;;;;;;;9.25;4.13;;;21.30;50.50;;;;;;4975781;28;20033;-75
2023/05/20 11:18:03;;;;;;;7.97;4.40;;;21.30;50.40;;;;;;4975301;28;20110;-75
2023/05/20 11:20:34;;;;;;;9.27;4.68;;;21.30;50.50;;;;;;4955673;28;20085;-75
2023/05/20 11:23:01;;;;;;;8.93;4.75;;;21.30;50.30;;;;;;4975622;28;20081;-74
2023/05/20 11:25:27;;;;;;;8.90;4.35;;;21.40;50.40;;;;;;4958101;28;20045;-75
2023/05/20 11:27:53;;;;;;;7.82;4.07;;;21.40;50.30;;;;;;4975054;28;20031;-74
2023/05/20 11:30:19;;;;;;;8.75;4.43;;;21.40;50.30;;;;;;4972769;28;20559;-74
2023/05/20 11:33:02;;;;;;;7.90;4.43;;;21.40;50.30;;;;;;4973770;28;20114;-74
2023/05/20 11:35:30;;;;;;;7.57;4.47;;;21.40;50.30;;;;;;4942180;28;20038;-74
2023/05/20 11:38:00;;;;;;;7.32;4.55;;;21.40;50.30;;;;;;4941670;28;20035;-74
2023/05/20 11:40:26;;;;;;;;;;;21.40;50.30;;;;;;4965248;28;20069;-74
2023/05/20 11:42:54;;;;;;;8.05;4.88;;;21.40;50.40;;;;;;4957959;28;19914;-74
2023/05/20 11:45:20;;;;;;;7.22;4.30;;;21.40;50.40;;;;;;4942017;28;20488;-74
2023/05/20 11:47:45;;;;;;;6.85;4.50;;;21.40;50.40;;;;;;4956571;28;20058;-74
2023/05/20 11:50:19;;;;;;;8.35;4.68;;;21.40;50.40;;;;;;4947882;28;20082;-74
2023/05/20 11:52:45;;;;;;;8.90;4.18;;;21.40;50.50;;;;;;4966237;28;20179;-74
2023/05/20 11:55:11;;;;;;;8.32;4.88;;;21.40;50.50;;;;;;4968325;28;20117;-74
2023/05/20 11:57:37;;;;;;;7.95;4.40;;;21.40;50.40;;;;;;4955202;28;20038;-74
2023/05/20 12:00:06;;;;;;;9.07;5.07;;;21.40;50.50;;;;;;4956770;28;20446;-74
2023/05/20 12:02:32;;;;;;;7.77;4.73;;;21.40;50.50;;;;;;4954689;28;20494;-74
2023/05/20 12:04:57;;;;;;;6.72;4.25;;;21.40;50.40;;;;;;4975134;28;20270;-74
2023/05/20 12:07:23;;;;;;;5.93;4.03;;;21.40;50.50;;;;;;4957087;28;20496;-74
2023/05/20 12:09:49;;;;;;;7.32;4.20;;;21.40;50.50;;;;;;4974782;28;20035;-74
2023/05/20 12:12:15;;;;;;;8.27;4.72;;;21.40;50.60;;;;;;4971027;28;20027;-74
2023/05/20 12:14:41;;;;;;;7.82;4.22;;;21.40;50.50;;;;;;4974567;28;20473;-74
2023/05/20 12:17:06;;;;;;;7.70;4.25;;;21.40;50.50;;;;;;4941179;28;20433;-74
2023/05/20 12:19:32;;;;;;;6.88;4.15;;;21.40;50.50;;;;;;4957263;28;20041;-74
2023/05/20 12:21:58;;;;;;;7.68;4.20;;;21.40;50.40;;;;;;4971176;28;20035;-74
2023/05/20 12:24:24;;;;;;;8.25;4.45;;;21.40;50.60;;;;;;4974383;28;20030;-74
2023/05/20 12:26:50;;;;;;;7.90;4.60;;;21.40;50.50;;;;;;4974093;28;20037;-73
2023/05/20 12:29:16;;;;;;;7.07;4.38;;;21.40;50.50;;;;;;4956912;28;20121;-73
2023/05/20 12:31:41;;;;;;;7.82;4.47;;;21.40;50.50;;;;;;4954005;28;20027;-73
2023/05/20 12:34:07;;;;;;;7.10;4.10;;;21.40;50.40;;;;;;4974143;28;20382;-74
2023/05/20 12:36:33;;;;;;;11.15;4.53;;;21.40;50.50;;;;;;4974230;28;20388;-74
2023/05/20 12:38:59;;;;;;;6.68;4.57;;;21.40;50.50;;;;;;4973992;28;20058;-74